createdAt,value
2017-12-11T00:01:13.246Z,74.40
2017-12-11T00:03:47.357Z,74.50
2017-12-11T00:06:20.817Z,74.10
2017-12-11T00:08:54.068Z,74.40
2017-12-11T00:11:26.398Z,74.40
2017-12-11T00:13:58.770Z,74.40
2017-12-11T00:16:30.304Z,73.70
2017-12-11T00:19:03.209Z,74.80
2017-12-11T00:21:37.721Z,74.70
2017-12-11T00:24:11.278Z,75.50
2017-12-11T00:26:44.401Z,75.50
2017-12-11T00:29:17.772Z,75.30
2017-12-11T00:31:49.932Z,75.20
2017-12-11T00:34:22.831Z,75.10
2017-12-11T00:36:57.840Z,75.50
2017-12-11T00:39:36.655Z,75.40
2017-12-11T00:42:10.021Z,75.30
2017-12-11T00:44:42.916Z,75.00
2017-12-11T00:47:17.465Z,75.20
2017-12-11T00:50:02.223Z,74.90
2017-12-11T00:52:38.768Z,75.00
2017-12-11T00:55:12.903Z,74.50
2017-12-11T00:57:45.689Z,74.70
2017-12-11T01:00:17.888Z,74.80
2017-12-11T01:02:51.006Z,74.90
2017-12-11T01:05:27.618Z,75.50
2017-12-11T01:08:02.505Z,75.40
2017-12-11T01:10:46.841Z,76.20
2017-12-11T01:13:18.557Z,76.10
2017-12-11T01:15:52.594Z,76.10
2017-12-11T01:18:31.901Z,75.90
2017-12-11T01:21:06.089Z,75.40
2017-12-11T01:23:39.364Z,76.30
2017-12-11T01:26:15.429Z,76.40
2017-12-11T01:28:50.519Z,76.10
2017-12-11T01:31:23.589Z,76.00
2017-12-11T01:33:56.991Z,76.40
2017-12-11T01:36:31.183Z,75.00
2017-12-11T01:39:05.471Z,76.50
2017-12-11T01:41:42.416Z,76.40
2017-12-11T01:44:17.842Z,76.30
2017-12-11T01:46:53.387Z,76.40
2017-12-11T01:49:29.028Z,76.60
2017-12-11T01:52:06.607Z,75.50
2017-12-11T01:54:39.073Z,76.30
2017-12-11T01:57:14.263Z,76.40
2017-12-11T01:59:46.029Z,76.40
2017-12-11T02:02:20.225Z,76.20
2017-12-11T02:04:55.258Z,76.10
2017-12-11T02:07:27.540Z,76.40
2017-12-11T02:10:05.408Z,76.10
2017-12-11T02:15:27.637Z,76.60
2017-12-11T02:18:03.416Z,76.90
2017-12-11T02:20:40.099Z,76.90
2017-12-11T02:23:16.423Z,76.90
2017-12-11T02:25:58.082Z,76.80
2017-12-11T02:28:43.110Z,77.00
2017-12-11T02:31:19.200Z,77.50
2017-12-11T02:33:54.006Z,76.90
2017-12-11T02:36:31.041Z,77.50
2017-12-11T02:39:06.050Z,77.60
2017-12-11T02:41:41.220Z,76.10
2017-12-11T02:44:13.147Z,78.20
2017-12-11T02:46:47.915Z,77.60
2017-12-11T02:49:25.434Z,76.90
2017-12-11T02:51:58.966Z,77.70
2017-12-11T02:54:32.969Z,78.90
2017-12-11T02:57:07.454Z,79.80
2017-12-11T02:59:44.811Z,78.70
2017-12-11T03:02:16.694Z,78.70
2017-12-11T03:04:54.552Z,78.80
2017-12-11T03:07:30.431Z,78.80
2017-12-11T03:10:06.821Z,79.00
2017-12-11T03:12:42.036Z,79.80
2017-12-11T03:15:18.177Z,79.90
2017-12-11T03:17:56.329Z,81.00
2017-12-11T03:20:33.031Z,81.10
2017-12-11T03:23:09.674Z,80.80
2017-12-11T03:25:45.771Z,81.60
2017-12-11T03:28:21.833Z,80.80
2017-12-11T03:30:57.651Z,80.70
2017-12-11T03:33:34.982Z,80.80
2017-12-11T03:36:09.689Z,79.80
2017-12-11T03:38:46.499Z,79.80
2017-12-11T03:41:21.463Z,79.80
2017-12-11T03:43:56.839Z,80.00
2017-12-11T03:46:29.303Z,80.20
2017-12-11T03:49:05.024Z,80.60
2017-12-11T03:51:38.355Z,80.30
2017-12-11T03:54:13.077Z,80.30
2017-12-11T03:56:45.947Z,80.10
2017-12-11T03:59:26.014Z,80.50
2017-12-11T04:02:03.063Z,80.30
2017-12-11T04:04:35.106Z,80.40
2017-12-11T04:07:09.835Z,80.10
2017-12-11T04:09:46.133Z,80.00
2017-12-11T04:12:22.686Z,80.60
2017-12-11T04:14:57.400Z,80.50
2017-12-11T04:17:32.494Z,80.50
2017-12-11T04:20:05.654Z,79.80
2017-12-11T04:22:43.158Z,80.30
2017-12-11T04:25:17.298Z,80.00
2017-12-11T04:27:51.935Z,80.10
2017-12-11T04:30:25.875Z,80.10
2017-12-11T04:33:01.425Z,79.40
2017-12-11T04:35:40.831Z,78.90
2017-12-11T04:40:52.001Z,79.10
2017-12-11T04:43:27.003Z,79.10
2017-12-11T04:46:02.077Z,78.70
2017-12-11T04:49:53.303Z,78.70
2017-12-11T04:52:26.762Z,78.70
2017-12-11T04:55:01.377Z,78.80
2017-12-11T04:57:34.101Z,78.60
2017-12-11T05:00:06.858Z,78.70
2017-12-11T05:02:42.531Z,78.50
2017-12-11T05:05:18.109Z,78.60
2017-12-11T05:07:50.371Z,78.60
2017-12-11T05:10:24.738Z,78.90
2017-12-11T05:13:28.110Z,78.70
2017-12-11T05:16:03.418Z,78.80
2017-12-11T05:18:47.917Z,78.90
2017-12-11T05:21:24.081Z,78.70
2017-12-11T05:24:00.907Z,78.70
2017-12-11T05:26:38.088Z,78.60
2017-12-11T05:29:14.219Z,78.70
2017-12-11T05:31:50.916Z,78.50
2017-12-11T05:34:25.783Z,78.60
2017-12-11T05:37:02.288Z,78.20
2017-12-11T05:39:37.541Z,78.20
2017-12-11T05:42:14.687Z,78.20
2017-12-11T05:44:49.228Z,78.20
2017-12-11T05:47:28.215Z,77.80
2017-12-11T05:50:05.698Z,77.70
2017-12-11T05:52:43.061Z,77.60
2017-12-11T05:55:18.882Z,77.50
2017-12-11T05:57:52.124Z,77.60
2017-12-11T06:00:26.711Z,77.50
2017-12-11T06:03:00.190Z,77.50
2017-12-11T06:05:35.254Z,77.80
2017-12-11T06:08:12.068Z,77.20
2017-12-11T06:10:50.035Z,77.20
2017-12-11T06:13:24.073Z,77.10
2017-12-11T06:16:01.965Z,76.90
2017-12-11T06:18:36.561Z,75.80
2017-12-11T06:21:23.972Z,75.80
2017-12-11T06:24:03.179Z,75.70
2017-12-11T06:26:40.122Z,75.90
2017-12-11T06:29:18.393Z,75.40
2017-12-11T06:31:55.066Z,75.60
2017-12-11T06:34:30.289Z,75.30
2017-12-11T06:37:17.799Z,76.20
2017-12-11T06:39:57.575Z,76.20
2017-12-11T06:42:31.066Z,77.40
2017-12-11T06:45:04.484Z,76.70
2017-12-11T06:47:40.724Z,77.10
2017-12-11T06:50:25.730Z,77.20
2017-12-11T06:52:59.657Z,77.40
2017-12-11T06:55:34.974Z,78.00
2017-12-11T06:58:19.725Z,78.00
2017-12-11T07:01:01.481Z,78.40
2017-12-11T07:03:41.431Z,79.10
2017-12-11T07:06:21.976Z,80.00
2017-12-11T07:08:56.933Z,81.50
2017-12-11T07:11:32.372Z,80.10
2017-12-11T07:14:10.720Z,80.20
2017-12-11T07:16:48.264Z,80.80
2017-12-11T07:19:24.051Z,80.70
2017-12-11T07:22:02.134Z,81.40
2017-12-11T07:24:45.139Z,81.60
2017-12-11T07:27:21.388Z,81.20
2017-12-11T07:30:05.730Z,82.60
2017-12-11T07:32:44.562Z,83.30
2017-12-11T07:35:23.803Z,82.80
2017-12-11T07:38:05.377Z,83.20
2017-12-11T07:43:42.832Z,83.60
2017-12-11T07:46:20.385Z,83.20
2017-12-11T07:48:58.421Z,83.40
2017-12-11T07:51:35.327Z,83.40
2017-12-11T07:54:13.968Z,82.80
2017-12-11T07:56:50.292Z,83.30
2017-12-11T07:59:26.236Z,82.40
2017-12-11T08:02:00.693Z,84.10
2017-12-11T08:04:34.682Z,84.80
2017-12-11T08:07:08.324Z,84.20
2017-12-11T08:09:47.345Z,82.50
2017-12-11T08:12:22.463Z,82.50
2017-12-11T08:14:57.413Z,83.40
2017-12-11T08:17:36.134Z,84.40
2017-12-11T08:20:09.894Z,83.20
2017-12-11T08:22:52.279Z,84.40
2017-12-11T08:25:43.851Z,84.20
2017-12-11T08:30:57.378Z,85.40
2017-12-11T08:33:35.536Z,84.50
2017-12-11T08:36:17.011Z,85.10
2017-12-11T08:38:56.311Z,84.60
2017-12-11T08:41:36.854Z,85.20
2017-12-11T08:44:16.046Z,85.40
2017-12-11T08:46:52.603Z,85.40
2017-12-11T08:49:38.706Z,85.40
2017-12-11T08:52:14.445Z,85.80
2017-12-11T08:55:16.282Z,85.90
2017-12-11T08:57:53.815Z,84.10
2017-12-11T09:03:39.529Z,88.20
2017-12-11T09:06:15.919Z,88.00
2017-12-11T09:08:54.127Z,88.70
2017-12-11T09:11:31.944Z,88.60
2017-12-11T09:14:11.059Z,88.80
2017-12-11T09:16:51.716Z,89.80
2017-12-11T09:19:28.005Z,89.30
2017-12-11T09:22:06.213Z,89.60
2017-12-11T09:24:39.907Z,90.20
2017-12-11T09:27:14.642Z,89.70
2017-12-11T09:29:55.264Z,89.60
2017-12-11T09:32:31.083Z,89.80
2017-12-11T09:35:06.660Z,90.20
2017-12-11T09:37:45.579Z,90.00
2017-12-11T09:40:17.769Z,89.90
2017-12-11T09:42:50.907Z,89.60
2017-12-11T09:45:24.329Z,89.90
2017-12-11T09:48:00.026Z,90.10
2017-12-11T09:50:36.380Z,90.60
2017-12-11T09:53:12.740Z,90.30
2017-12-11T09:55:55.328Z,90.30
2017-12-11T09:58:35.720Z,90.20
2017-12-11T10:01:12.672Z,89.70
2017-12-11T10:03:51.728Z,89.10
2017-12-11T10:06:25.346Z,89.90
2017-12-11T10:09:01.683Z,89.20
2017-12-11T10:11:38.917Z,88.60
2017-12-11T10:14:13.519Z,89.60
2017-12-11T10:16:51.901Z,90.00
2017-12-11T10:19:29.443Z,90.00
2017-12-11T10:22:20.127Z,88.10
2017-12-11T10:24:56.765Z,88.20
2017-12-11T10:27:32.547Z,90.00
2017-12-11T10:30:12.214Z,90.60
2017-12-11T10:32:55.660Z,90.30
2017-12-11T10:35:31.126Z,90.20
2017-12-11T10:38:11.611Z,90.10
2017-12-11T10:40:47.187Z,89.60
2017-12-11T10:43:24.630Z,90.00
2017-12-11T10:46:02.806Z,90.00
2017-12-11T10:48:38.181Z,89.80
2017-12-11T10:54:04.887Z,88.20
2017-12-11T10:56:47.571Z,88.30
2017-12-11T10:59:24.468Z,87.90
2017-12-11T11:02:00.336Z,88.90
2017-12-11T11:07:21.507Z,88.60
2017-12-11T11:09:54.998Z,88.60
2017-12-11T11:12:33.672Z,86.80
2017-12-11T11:15:12.580Z,86.90
2017-12-11T11:17:46.270Z,86.80
2017-12-11T11:20:27.729Z,86.80
2017-12-11T11:23:00.908Z,86.30
2017-12-11T11:25:41.363Z,86.30
2017-12-11T11:28:14.809Z,85.00
2017-12-11T11:30:52.106Z,84.20
2017-12-11T11:33:27.244Z,85.30
2017-12-11T11:36:02.101Z,85.70
2017-12-11T11:38:44.819Z,87.60
2017-12-11T11:41:22.821Z,86.70
2017-12-11T11:43:57.221Z,86.50
2017-12-11T11:46:37.984Z,87.20
2017-12-11T11:49:11.691Z,86.90
2017-12-11T11:51:52.058Z,86.60
2017-12-11T11:57:15.818Z,87.60
2017-12-11T11:59:56.684Z,87.90
2017-12-11T12:02:36.380Z,88.20
2017-12-11T12:05:18.331Z,86.40
2017-12-11T12:07:57.081Z,88.50
2017-12-11T12:10:40.655Z,88.50
2017-12-11T12:13:15.884Z,88.60
2017-12-11T12:15:52.306Z,88.00
2017-12-11T12:18:28.561Z,88.50
2017-12-11T12:21:13.885Z,88.20
2017-12-11T12:23:59.412Z,88.00
2017-12-11T12:26:37.474Z,88.00
2017-12-11T12:29:28.304Z,87.30
2017-12-11T12:32:02.208Z,87.30
2017-12-11T12:34:36.032Z,86.70
2017-12-11T12:37:15.244Z,87.10
2017-12-11T12:39:54.835Z,86.30
2017-12-11T12:42:32.341Z,87.00
2017-12-11T12:45:11.135Z,87.20
2017-12-11T12:47:50.408Z,87.20
2017-12-11T12:50:29.259Z,87.50
2017-12-11T12:53:11.203Z,87.50
2017-12-11T12:56:07.694Z,86.50
2017-12-11T12:58:48.365Z,86.00
2017-12-11T13:01:32.339Z,85.50
2017-12-11T13:04:13.467Z,85.60
2017-12-11T13:07:03.676Z,86.10
2017-12-11T13:09:53.594Z,85.70
2017-12-11T13:12:43.367Z,85.90
2017-12-11T13:15:23.882Z,86.10
2017-12-11T13:18:08.232Z,86.70
2017-12-11T13:20:48.696Z,86.60
2017-12-11T13:23:24.830Z,86.50
2017-12-11T13:26:03.504Z,86.50
2017-12-11T13:28:37.576Z,85.30
2017-12-11T13:31:12.947Z,84.60
2017-12-11T13:33:48.521Z,84.60
2017-12-11T13:36:26.434Z,85.40
2017-12-11T13:39:03.066Z,84.60
2017-12-11T13:41:43.354Z,84.80
2017-12-11T13:44:20.468Z,84.90
2017-12-11T13:49:43.610Z,85.00
2017-12-11T13:52:18.992Z,85.10
2017-12-11T13:55:05.172Z,85.00
2017-12-11T13:57:42.448Z,85.40
2017-12-11T14:00:20.329Z,85.30
2017-12-11T14:03:01.992Z,85.40
2017-12-11T14:05:35.951Z,85.00
2017-12-11T14:08:13.326Z,85.00
2017-12-11T14:10:53.961Z,85.00
2017-12-11T14:13:33.076Z,86.60
2017-12-11T14:16:10.789Z,85.20
2017-12-11T14:18:57.139Z,85.30
2017-12-11T14:21:34.836Z,85.10
2017-12-11T14:24:18.428Z,85.10
2017-12-11T14:27:07.290Z,85.30
2017-12-11T14:29:56.606Z,85.30
2017-12-11T14:32:36.251Z,85.30
2017-12-11T14:35:13.556Z,84.20
2017-12-11T14:37:54.095Z,84.40
2017-12-11T14:40:34.128Z,84.40
2017-12-11T14:43:15.801Z,85.10
2017-12-11T14:45:59.087Z,84.70
2017-12-11T14:48:36.758Z,85.10
2017-12-11T14:54:15.287Z,84.50
2017-12-11T14:56:59.988Z,84.20
2017-12-11T15:02:27.360Z,83.50
2017-12-11T15:05:07.856Z,83.50
2017-12-11T15:07:43.521Z,83.00
2017-12-11T15:10:22.790Z,82.90
2017-12-11T15:12:58.282Z,82.40
2017-12-11T15:15:33.164Z,82.20
2017-12-11T15:18:08.317Z,82.10
2017-12-11T15:20:44.629Z,82.20
2017-12-11T15:23:25.822Z,81.80
2017-12-11T15:26:03.460Z,82.00
2017-12-11T15:28:42.100Z,81.60
2017-12-11T15:31:26.437Z,81.70
2017-12-11T15:34:05.115Z,81.50
2017-12-11T15:36:46.183Z,81.30
2017-12-11T15:39:28.206Z,81.40
2017-12-11T15:42:08.464Z,81.80
2017-12-11T15:44:46.877Z,81.90
2017-12-11T15:47:26.931Z,80.80
2017-12-11T15:50:15.232Z,81.30
2017-12-11T15:52:55.099Z,81.20
2017-12-11T15:55:39.912Z,81.30
2017-12-11T15:58:28.257Z,81.40
2017-12-11T16:01:12.258Z,81.60
2017-12-11T16:04:00.324Z,81.70
2017-12-11T16:06:40.269Z,81.80
2017-12-11T16:09:20.244Z,81.70
2017-12-11T16:11:59.680Z,81.60
2017-12-11T16:14:44.812Z,81.50
2017-12-11T16:17:24.118Z,81.40
2017-12-11T16:20:02.566Z,81.40
2017-12-11T16:22:44.382Z,81.40
2017-12-11T16:25:23.358Z,82.20
2017-12-11T16:28:10.934Z,81.50
2017-12-11T16:30:56.975Z,81.70
2017-12-11T16:33:35.554Z,81.70
2017-12-11T16:36:12.345Z,81.70
2017-12-11T16:38:51.513Z,81.90
2017-12-11T16:41:32.699Z,82.40
2017-12-11T16:44:11.232Z,83.00
2017-12-11T16:46:52.399Z,83.10
2017-12-11T16:49:32.008Z,83.10
2017-12-11T16:52:21.799Z,83.10
2017-12-11T16:55:02.094Z,83.00
2017-12-11T16:57:44.230Z,83.50
2017-12-11T17:00:24.607Z,83.30
2017-12-11T17:03:13.464Z,82.80
2017-12-11T17:05:53.935Z,82.40
2017-12-11T17:08:38.879Z,82.20
2017-12-11T17:11:24.677Z,82.10
2017-12-11T17:14:03.697Z,81.70
2017-12-11T17:16:45.883Z,81.80
2017-12-11T17:19:30.002Z,82.10
2017-12-11T17:22:10.792Z,82.90
2017-12-11T17:24:53.786Z,82.20
2017-12-11T17:27:37.340Z,81.80
2017-12-11T17:33:10.819Z,81.80
2017-12-11T17:35:55.996Z,81.70
2017-12-11T17:38:42.606Z,82.30
2017-12-11T17:41:25.127Z,82.10
2017-12-11T17:44:09.843Z,82.10
2017-12-11T17:46:52.597Z,82.00
2017-12-11T17:49:38.311Z,82.00
2017-12-11T17:52:21.272Z,82.80
2017-12-11T17:55:07.544Z,82.50
2017-12-11T17:57:51.409Z,82.60
2017-12-11T18:00:32.958Z,82.60
2017-12-11T18:03:14.845Z,82.60
2017-12-11T18:06:03.184Z,81.50
2017-12-11T18:08:46.177Z,82.20
2017-12-11T18:11:24.783Z,82.10
2017-12-11T18:14:07.851Z,79.60
2017-12-11T18:16:58.185Z,80.00
2017-12-11T18:19:42.827Z,80.80
2017-12-11T18:22:31.585Z,80.80
2017-12-11T18:25:12.344Z,80.30
2017-12-11T18:27:52.601Z,81.40
2017-12-11T18:30:33.845Z,81.40
2017-12-11T18:33:16.010Z,82.30
2017-12-11T18:36:00.960Z,82.30
2017-12-11T18:38:43.152Z,81.40
2017-12-11T18:41:25.764Z,81.00
2017-12-11T18:44:03.844Z,80.70
2017-12-11T18:46:48.213Z,81.40
2017-12-11T18:49:29.269Z,81.20
2017-12-11T18:52:09.947Z,81.50
2017-12-11T18:54:50.913Z,81.40
2017-12-11T18:57:43.673Z,80.70
2017-12-11T19:00:30.204Z,80.70
2017-12-11T19:03:13.809Z,80.50
2017-12-11T19:05:55.786Z,80.50
2017-12-11T19:08:38.832Z,80.60
2017-12-11T19:11:26.337Z,80.80
2017-12-11T19:16:51.974Z,81.70
2017-12-11T19:19:41.353Z,81.70
2017-12-11T19:22:22.071Z,82.10
2017-12-11T19:25:01.885Z,83.20
2017-12-11T19:27:54.231Z,82.50
2017-12-11T19:30:39.164Z,82.70
2017-12-11T19:33:17.379Z,82.60
2017-12-11T19:36:00.195Z,81.20
2017-12-11T19:38:44.625Z,80.10
2017-12-11T19:41:24.356Z,79.90
2017-12-11T19:44:07.231Z,78.90
2017-12-11T19:46:47.220Z,78.70
2017-12-11T19:49:28.703Z,78.90
2017-12-11T19:55:01.043Z,78.70
2017-12-11T20:00:33.220Z,78.10
2017-12-11T20:03:26.269Z,78.10
2017-12-11T20:06:04.920Z,78.20
2017-12-11T20:08:47.654Z,78.20
2017-12-11T20:14:17.482Z,77.60
2017-12-11T20:17:01.257Z,77.80
2017-12-11T20:22:48.404Z,77.50
2017-12-11T20:25:41.092Z,77.50
2017-12-11T20:31:08.230Z,77.80
2017-12-11T20:33:52.538Z,78.80
2017-12-11T20:36:30.923Z,78.00
2017-12-11T20:39:17.655Z,78.20
2017-12-11T20:41:54.451Z,78.50
2017-12-11T20:44:31.868Z,78.20
2017-12-11T20:47:09.292Z,78.10
2017-12-11T20:49:53.069Z,77.60
2017-12-11T20:55:25.557Z,77.30
2017-12-11T20:58:08.105Z,77.40
2017-12-11T21:00:52.808Z,77.50
2017-12-11T21:03:37.958Z,77.00
2017-12-11T21:06:22.019Z,77.10
2017-12-11T21:09:04.657Z,77.60
2017-12-11T21:11:42.699Z,76.70
2017-12-11T21:14:22.363Z,76.80
2017-12-11T21:17:00.369Z,76.60
2017-12-11T21:19:46.488Z,76.20
2017-12-11T21:22:30.916Z,76.30
2017-12-11T21:25:11.374Z,76.60
2017-12-11T21:27:51.257Z,75.80
2017-12-11T21:30:34.402Z,75.50
2017-12-11T21:33:13.439Z,75.40
2017-12-11T21:35:52.740Z,75.70
2017-12-11T21:38:29.925Z,76.50
2017-12-11T21:41:15.655Z,76.90
2017-12-11T21:44:03.578Z,76.70
2017-12-11T21:50:06.613Z,76.60
2017-12-11T21:52:52.999Z,76.60
2017-12-11T22:01:25.086Z,76.60
2017-12-11T22:04:03.121Z,76.60
2017-12-11T22:06:40.317Z,75.70
2017-12-11T22:09:21.876Z,77.20
2017-12-11T22:11:58.387Z,77.20
2017-12-11T22:14:33.770Z,77.00
2017-12-11T22:17:14.289Z,75.70
2017-12-11T22:19:52.182Z,78.00
2017-12-11T22:22:27.134Z,77.80
2017-12-11T22:25:02.291Z,77.80
2017-12-11T22:27:36.883Z,77.80
2017-12-11T22:30:13.266Z,78.10
2017-12-11T22:32:53.689Z,77.70
2017-12-11T22:35:29.052Z,77.50
2017-12-11T22:38:04.181Z,77.50
2017-12-11T22:40:38.871Z,77.50
2017-12-11T22:43:12.188Z,77.40
2017-12-11T22:45:45.519Z,77.60
2017-12-11T22:48:18.727Z,77.80
2017-12-11T22:50:51.989Z,77.70
2017-12-11T22:53:25.747Z,77.10
2017-12-11T22:55:58.635Z,77.10
2017-12-11T22:58:39.143Z,78.20
2017-12-11T23:01:18.185Z,76.60
2017-12-11T23:03:52.058Z,77.30
2017-12-11T23:06:29.882Z,76.20
2017-12-11T23:09:03.857Z,76.90
2017-12-11T23:11:37.382Z,76.90
2017-12-11T23:14:11.934Z,78.00
2017-12-11T23:16:48.329Z,78.00
2017-12-11T23:19:21.822Z,78.40
2017-12-11T23:21:58.921Z,75.60
2017-12-11T23:24:31.951Z,74.60
2017-12-11T23:27:06.688Z,74.10
2017-12-11T23:29:41.833Z,74.10
2017-12-11T23:32:14.980Z,73.90
2017-12-11T23:34:48.624Z,74.20
2017-12-11T23:37:21.807Z,74.50
2017-12-11T23:39:55.276Z,72.30
2017-12-11T23:42:28.617Z,72.40
2017-12-11T23:45:06.250Z,72.30
2017-12-11T23:47:46.806Z,72.00
2017-12-11T23:50:25.863Z,68.80
2017-12-11T23:52:58.524Z,68.90
2017-12-11T23:55:30.684Z,69.50
2017-12-11T23:58:09.626Z,71.90
